createdAt,value
2024-02-02T00:00:51.757Z,999.00
2024-02-02T00:01:51.774Z,998.00
2024-02-02T00:02:51.979Z,997.00
2024-02-02T00:03:52.060Z,998.00
2024-02-02T00:04:51.885Z,995.00
2024-02-02T00:05:51.974Z,996.00
2024-02-02T00:06:52.008Z,996.00
2024-02-02T00:07:52.021Z,996.00
2024-02-02T00:08:52.072Z,997.00
2024-02-02T00:09:52.080Z,998.00
2024-02-02T00:10:52.133Z,999.00
2024-02-02T00:11:52.988Z,997.00
2024-02-02T00:12:52.218Z,998.00
2024-02-02T00:13:52.250Z,997.00
2024-02-02T00:14:52.341Z,1000.00
2024-02-02T00:15:52.407Z,1001.00
2024-02-02T00:16:52.468Z,1003.00
2024-02-02T00:17:52.558Z,1004.00
2024-02-02T00:18:52.552Z,1005.00
2024-02-02T00:19:52.594Z,1005.00
2024-02-02T00:20:52.611Z,1009.00
2024-02-02T00:21:52.966Z,1009.00
2024-02-02T00:22:53.964Z,1008.00
2024-02-02T00:23:52.682Z,1004.00
2024-02-02T00:24:52.625Z,998.00
2024-02-02T00:25:52.630Z,1001.00
2024-02-02T00:26:52.687Z,1001.00
2024-02-02T00:27:52.652Z,1002.00
2024-02-02T00:28:52.683Z,1001.00
2024-02-02T00:29:52.657Z,1001.00
2024-02-02T00:30:52.682Z,1002.00
2024-02-02T00:31:53.008Z,1001.00
2024-02-02T00:32:52.791Z,1001.00
2024-02-02T00:33:52.773Z,1001.00
2024-02-02T00:34:52.805Z,1001.00
2024-02-02T00:35:52.729Z,1002.00
2024-02-02T00:36:52.687Z,1004.00
2024-02-02T00:37:52.656Z,1005.00
2024-02-02T00:38:52.691Z,1004.00
2024-02-02T00:39:52.683Z,1004.00
2024-02-02T00:40:52.714Z,1005.00
2024-02-02T00:41:52.714Z,1003.00
2024-02-02T00:42:52.696Z,1003.00
2024-02-02T00:43:52.680Z,1002.00
2024-02-02T00:44:52.688Z,1002.00
2024-02-02T00:45:52.695Z,1003.00
2024-02-02T00:46:52.699Z,1002.00
2024-02-02T00:47:52.779Z,999.00
2024-02-02T00:48:52.801Z,998.00
2024-02-02T00:49:52.713Z,996.00
2024-02-02T00:50:52.726Z,995.00
2024-02-02T00:51:52.709Z,992.00
2024-02-02T00:52:52.704Z,991.00
2024-02-02T00:53:52.742Z,994.00
2024-02-02T00:54:52.683Z,991.00
2024-02-02T00:55:52.697Z,993.00
2024-02-02T00:56:52.844Z,994.00
2024-02-02T00:57:52.767Z,996.00
2024-02-02T00:58:52.740Z,998.00
2024-02-02T00:59:52.744Z,998.00
2024-02-02T01:00:52.749Z,999.00
2024-02-02T01:01:52.704Z,997.00
2024-02-02T01:02:52.758Z,997.00
2024-02-02T01:03:52.763Z,996.00
2024-02-02T01:04:52.676Z,995.00
2024-02-02T01:05:52.768Z,997.00
2024-02-02T01:06:52.811Z,997.00
2024-02-02T01:07:52.700Z,997.00
2024-02-02T01:08:52.744Z,997.00
2024-02-02T01:09:52.705Z,998.00
2024-02-02T01:10:52.731Z,997.00
2024-02-02T01:11:52.698Z,995.00
2024-02-02T01:12:52.700Z,991.00
2024-02-02T01:13:52.666Z,990.00
2024-02-02T01:14:52.737Z,989.00
2024-02-02T01:15:52.776Z,990.00
2024-02-02T01:16:52.789Z,991.00
2024-02-02T01:17:52.944Z,992.00
2024-02-02T01:18:53.174Z,992.00
2024-02-02T01:19:53.010Z,993.00
2024-02-02T01:20:53.070Z,992.00
2024-02-02T01:21:53.068Z,993.00
2024-02-02T01:22:53.142Z,995.00
2024-02-02T01:23:53.206Z,994.00
2024-02-02T01:24:53.242Z,990.00
2024-02-02T01:25:53.300Z,992.00
2024-02-02T01:26:53.362Z,991.00
2024-02-02T01:27:53.408Z,989.00
2024-02-02T01:28:53.487Z,987.00
2024-02-02T01:29:53.568Z,987.00
2024-02-02T01:30:53.625Z,987.00
2024-02-02T01:31:53.701Z,986.00
2024-02-02T01:32:53.847Z,985.00
2024-02-02T01:33:53.839Z,984.00
2024-02-02T01:34:53.832Z,985.00
2024-02-02T01:35:53.918Z,984.00
2024-02-02T01:36:53.939Z,984.00
2024-02-02T01:37:54.026Z,984.00
2024-02-02T01:38:54.113Z,984.00
2024-02-02T01:39:54.148Z,983.00
2024-02-02T01:40:54.214Z,982.00
2024-02-02T01:41:54.343Z,982.00
2024-02-02T01:42:54.329Z,980.00
2024-02-02T01:43:54.503Z,978.00
2024-02-02T01:44:54.484Z,975.00
2024-02-02T01:45:54.491Z,973.00
2024-02-02T01:46:54.615Z,973.00
2024-02-02T01:47:54.775Z,974.00
2024-02-02T01:48:54.823Z,976.00
2024-02-02T01:49:54.830Z,977.00
2024-02-02T01:50:54.990Z,978.00
2024-02-02T01:51:54.892Z,978.00
2024-02-02T01:52:54.966Z,979.00
2024-02-02T01:53:55.072Z,979.00
2024-02-02T01:54:55.120Z,980.00
2024-02-02T01:55:55.175Z,978.00
2024-02-02T01:56:55.252Z,977.00
2024-02-02T01:57:55.230Z,975.00
2024-02-02T01:58:55.325Z,972.00
2024-02-02T01:59:55.548Z,972.00
2024-02-02T02:00:55.675Z,971.00
2024-02-02T02:01:55.558Z,973.00
2024-02-02T02:02:55.826Z,974.00
2024-02-02T02:03:55.716Z,971.00
2024-02-02T02:04:55.714Z,972.00
2024-02-02T02:05:56.094Z,972.00
2024-02-02T02:06:55.875Z,972.00
2024-02-02T02:07:55.913Z,971.00
2024-02-02T02:08:56.020Z,969.00
2024-02-02T02:09:56.041Z,968.00
2024-02-02T02:10:56.108Z,970.00
2024-02-02T02:11:56.162Z,969.00
2024-02-02T02:12:56.262Z,971.00
2024-02-02T02:13:57.000Z,971.00
2024-02-02T02:14:56.414Z,972.00
2024-02-02T02:15:56.423Z,973.00
2024-02-02T02:16:56.494Z,971.00
2024-02-02T02:17:56.583Z,971.00
2024-02-02T02:19:02.860Z,971.00
2024-02-02T02:19:57.686Z,971.00
2024-02-02T02:20:56.747Z,971.00
2024-02-02T02:21:56.597Z,970.00
2024-02-02T02:22:56.636Z,969.00
2024-02-02T02:23:56.727Z,971.00
2024-02-02T02:24:56.655Z,973.00
2024-02-02T02:25:56.631Z,975.00
2024-02-02T02:26:56.635Z,974.00
2024-02-02T02:27:56.631Z,975.00
2024-02-02T02:28:56.660Z,973.00
2024-02-02T02:29:56.760Z,973.00
2024-02-02T02:30:56.773Z,973.00
2024-02-02T02:31:56.964Z,973.00
2024-02-02T02:32:57.043Z,971.00
2024-02-02T02:33:57.140Z,968.00
2024-02-02T02:34:57.094Z,967.00
2024-02-02T02:35:57.214Z,966.00
2024-02-02T02:36:57.221Z,969.00
2024-02-02T02:37:57.293Z,968.00
2024-02-02T02:38:57.338Z,967.00
2024-02-02T02:39:57.423Z,968.00
2024-02-02T02:40:57.494Z,968.00
2024-02-02T02:41:57.587Z,968.00
2024-02-02T02:42:57.643Z,967.00
2024-02-02T02:43:57.678Z,967.00
2024-02-02T02:44:57.852Z,965.00
2024-02-02T02:45:57.848Z,963.00
2024-02-02T02:46:57.907Z,963.00
2024-02-02T02:47:58.621Z,961.00
2024-02-02T02:48:58.158Z,960.00
2024-02-02T02:49:58.112Z,960.00
2024-02-02T02:50:58.208Z,960.00
2024-02-02T02:51:58.245Z,958.00
2024-02-02T02:52:58.334Z,960.00
2024-02-02T02:53:58.422Z,960.00
2024-02-02T02:54:58.489Z,960.00
2024-02-02T02:55:58.566Z,962.00
2024-02-02T02:56:58.697Z,961.00
2024-02-02T02:57:58.685Z,962.00
2024-02-02T02:58:58.757Z,962.00
2024-02-02T02:59:58.871Z,961.00
2024-02-02T03:00:58.939Z,961.00
2024-02-02T03:01:58.979Z,959.00
2024-02-02T03:02:59.079Z,955.00
2024-02-02T03:03:59.124Z,953.00
2024-02-02T03:04:59.192Z,955.00
2024-02-02T03:05:59.401Z,953.00
2024-02-02T03:06:59.355Z,952.00
2024-02-02T03:07:59.382Z,953.00
2024-02-02T03:08:59.451Z,952.00
2024-02-02T03:09:59.510Z,954.00
2024-02-02T03:10:59.605Z,953.00
2024-02-02T03:11:59.680Z,952.00
2024-02-02T03:12:59.776Z,952.00
2024-02-02T03:13:59.789Z,951.00
2024-02-02T03:14:59.923Z,950.00
2024-02-02T03:15:59.943Z,951.00
2024-02-02T03:17:00.018Z,953.00
2024-02-02T03:18:00.218Z,958.00
2024-02-02T03:19:00.307Z,960.00
2024-02-02T03:20:00.313Z,959.00
2024-02-02T03:21:00.327Z,962.00
2024-02-02T03:22:00.397Z,961.00
2024-02-02T03:23:00.456Z,962.00
2024-02-02T03:24:00.539Z,964.00
2024-02-02T03:25:00.583Z,964.00
2024-02-02T03:26:00.608Z,962.00
2024-02-02T03:27:00.728Z,960.00
2024-02-02T03:28:00.952Z,958.00
2024-02-02T03:29:00.854Z,954.00
2024-02-02T03:30:00.997Z,952.00
2024-02-02T03:31:00.951Z,950.00
2024-02-02T03:32:01.034Z,949.00
2024-02-02T03:33:01.263Z,950.00
2024-02-02T03:34:01.277Z,952.00
2024-02-02T03:35:01.254Z,952.00
2024-02-02T03:36:01.393Z,952.00
2024-02-02T03:37:01.371Z,950.00
2024-02-02T03:38:01.471Z,951.00
2024-02-02T03:39:01.543Z,950.00
2024-02-02T03:40:01.597Z,948.00
2024-02-02T03:41:01.634Z,946.00
2024-02-02T03:42:01.736Z,946.00
2024-02-02T03:43:01.779Z,944.00
2024-02-02T03:44:01.886Z,943.00
2024-02-02T03:45:02.020Z,945.00
2024-02-02T03:46:01.987Z,942.00
2024-02-02T03:47:02.053Z,940.00
2024-02-02T03:48:02.202Z,941.00
2024-02-02T03:49:02.286Z,944.00
2024-02-02T03:50:02.414Z,942.00
2024-02-02T03:51:02.375Z,940.00
2024-02-02T03:52:02.507Z,940.00
2024-02-02T03:53:02.471Z,939.00
2024-02-02T03:54:02.600Z,938.00
2024-02-02T03:55:02.554Z,936.00
2024-02-02T03:56:02.631Z,934.00
2024-02-02T03:57:02.828Z,936.00
2024-02-02T03:58:02.798Z,938.00
2024-02-02T03:59:02.900Z,938.00
2024-02-02T04:00:02.962Z,938.00
2024-02-02T04:01:03.033Z,940.00
2024-02-02T04:02:03.093Z,937.00
2024-02-02T04:03:03.663Z,935.00
2024-02-02T04:04:03.288Z,936.00
2024-02-02T04:05:03.308Z,936.00
2024-02-02T04:06:03.330Z,937.00
2024-02-02T04:07:03.427Z,935.00
2024-02-02T04:08:03.530Z,936.00
2024-02-02T04:09:03.577Z,935.00
2024-02-02T04:10:03.552Z,933.00
2024-02-02T04:11:03.626Z,934.00
2024-02-02T04:12:03.756Z,935.00
2024-02-02T04:13:04.003Z,933.00
2024-02-02T04:14:03.798Z,934.00
2024-02-02T04:15:03.888Z,934.00
2024-02-02T04:16:03.953Z,933.00
2024-02-02T04:17:03.948Z,935.00
2024-02-02T04:18:04.670Z,939.00
2024-02-02T04:19:04.158Z,938.00
2024-02-02T04:20:04.254Z,940.00
2024-02-02T04:21:04.220Z,939.00
2024-02-02T04:22:04.248Z,941.00
2024-02-02T04:23:04.569Z,945.00
2024-02-02T04:24:04.358Z,945.00
2024-02-02T04:25:04.368Z,945.00
2024-02-02T04:26:04.381Z,942.00
2024-02-02T04:27:04.448Z,940.00
2024-02-02T04:28:04.526Z,940.00
2024-02-02T04:29:04.538Z,940.00
2024-02-02T04:30:04.715Z,941.00
2024-02-02T04:31:04.646Z,939.00
2024-02-02T04:32:04.744Z,939.00
2024-02-02T04:33:05.126Z,941.00
2024-02-02T04:34:04.889Z,945.00
2024-02-02T04:35:12.288Z,951.00
2024-02-02T04:36:12.271Z,941.00
2024-02-02T04:37:12.237Z,938.00
2024-02-02T04:38:12.247Z,935.00
2024-02-02T04:39:12.346Z,937.00
2024-02-02T04:40:12.301Z,937.00
2024-02-02T04:41:12.254Z,939.00
2024-02-02T04:42:12.308Z,933.00
2024-02-02T04:43:12.290Z,932.00
2024-02-02T04:44:12.269Z,930.00
2024-02-02T04:45:12.262Z,929.00
2024-02-02T04:46:12.421Z,929.00
2024-02-02T04:47:12.296Z,929.00
2024-02-02T04:48:12.486Z,929.00
2024-02-02T04:49:12.447Z,925.00
2024-02-02T04:50:12.240Z,924.00
2024-02-02T04:51:12.321Z,922.00
2024-02-02T04:52:12.234Z,924.00
2024-02-02T04:53:12.256Z,923.00
2024-02-02T04:54:12.318Z,925.00
2024-02-02T04:55:12.258Z,926.00
2024-02-02T04:56:12.251Z,928.00
2024-02-02T04:57:12.323Z,930.00
2024-02-02T04:58:12.347Z,931.00
2024-02-02T04:59:12.369Z,930.00
2024-02-02T05:00:12.502Z,932.00
2024-02-02T05:01:12.555Z,930.00
2024-02-02T05:02:12.688Z,931.00
2024-02-02T05:03:12.970Z,933.00
2024-02-02T05:04:12.754Z,933.00
2024-02-02T05:05:12.756Z,933.00
2024-02-02T05:06:12.850Z,934.00
2024-02-02T05:07:12.970Z,932.00
2024-02-02T05:08:13.453Z,926.00
2024-02-02T05:09:13.026Z,923.00
2024-02-02T05:10:13.072Z,923.00
2024-02-02T05:11:14.020Z,921.00
2024-02-02T05:12:13.251Z,922.00
2024-02-02T05:13:16.384Z,922.00
2024-02-02T05:14:13.285Z,922.00
2024-02-02T05:15:13.432Z,921.00
2024-02-02T05:16:15.612Z,919.00
2024-02-02T05:17:13.351Z,919.00
2024-02-02T05:18:14.133Z,917.00
2024-02-02T05:19:13.358Z,917.00
2024-02-02T05:20:13.244Z,915.00
2024-02-02T05:21:13.311Z,918.00
2024-02-02T05:22:13.349Z,917.00
2024-02-02T05:23:13.330Z,916.00
2024-02-02T05:24:26.243Z,916.00
2024-02-02T05:25:15.592Z,918.00
2024-02-02T05:26:13.371Z,921.00
2024-02-02T05:27:13.580Z,919.00
2024-02-02T05:28:13.532Z,920.00
2024-02-02T05:29:13.526Z,919.00
2024-02-02T05:30:13.691Z,920.00
2024-02-02T05:31:13.736Z,921.00
2024-02-02T05:32:13.773Z,920.00
2024-02-02T05:33:13.947Z,919.00
2024-02-02T05:34:14.144Z,916.00
2024-02-02T05:35:13.970Z,917.00
2024-02-02T05:36:13.992Z,916.00
2024-02-02T05:37:13.995Z,915.00
2024-02-02T05:38:14.111Z,913.00
2024-02-02T05:39:14.126Z,913.00
2024-02-02T05:40:14.190Z,912.00
2024-02-02T05:41:14.271Z,914.00
2024-02-02T05:42:14.352Z,914.00
2024-02-02T05:43:14.339Z,912.00
2024-02-02T05:44:14.455Z,911.00
2024-02-02T05:45:14.553Z,910.00
2024-02-02T05:46:14.545Z,909.00
2024-02-02T05:47:14.640Z,906.00
2024-02-02T05:48:14.999Z,907.00
2024-02-02T05:49:14.737Z,909.00
2024-02-02T05:50:14.759Z,908.00
2024-02-02T05:51:14.940Z,906.00
2024-02-02T05:52:14.817Z,904.00
2024-02-02T05:53:15.439Z,904.00
2024-02-02T05:54:14.945Z,904.00
2024-02-02T05:55:14.935Z,901.00
2024-02-02T05:56:15.121Z,900.00
2024-02-02T05:57:15.170Z,899.00
2024-02-02T05:58:15.479Z,901.00
2024-02-02T05:59:15.156Z,899.00
2024-02-02T06:00:15.282Z,900.00
2024-02-02T06:01:15.340Z,902.00
2024-02-02T06:02:15.355Z,903.00
2024-02-02T06:03:15.948Z,903.00
2024-02-02T06:04:15.546Z,901.00
2024-02-02T06:05:15.582Z,900.00
2024-02-02T06:06:15.682Z,898.00
2024-02-02T06:07:15.763Z,896.00
2024-02-02T06:08:16.056Z,897.00
2024-02-02T06:09:16.452Z,896.00
2024-02-02T06:10:15.820Z,901.00
2024-02-02T06:11:15.859Z,905.00
2024-02-02T06:12:15.959Z,910.00
2024-02-02T06:13:15.959Z,911.00
2024-02-02T06:14:16.105Z,911.00
2024-02-02T06:15:16.231Z,913.00
2024-02-02T06:16:16.188Z,913.00
2024-02-02T06:17:16.222Z,913.00
2024-02-02T06:18:16.590Z,913.00
2024-02-02T06:19:16.499Z,910.00
2024-02-02T06:20:16.483Z,909.00
2024-02-02T06:21:16.670Z,909.00
2024-02-02T06:22:16.627Z,906.00
2024-02-02T06:23:17.100Z,906.00
2024-02-02T06:24:16.694Z,903.00
2024-02-02T06:25:16.679Z,902.00
2024-02-02T06:26:16.685Z,902.00
2024-02-02T06:27:16.987Z,901.00
2024-02-02T06:28:16.806Z,899.00
2024-02-02T06:29:16.905Z,898.00
2024-02-02T06:30:16.954Z,895.00
2024-02-02T06:31:17.013Z,897.00
2024-02-02T06:32:17.009Z,898.00
2024-02-02T06:33:17.622Z,897.00
2024-02-02T06:34:17.289Z,893.00
2024-02-02T06:35:17.111Z,894.00
2024-02-02T06:36:17.189Z,897.00
2024-02-02T06:37:17.177Z,896.00
2024-02-02T06:38:17.168Z,897.00
2024-02-02T06:39:17.206Z,893.00
2024-02-02T06:40:17.191Z,894.00
2024-02-02T06:41:17.265Z,895.00
2024-02-02T06:42:17.230Z,899.00
2024-02-02T06:43:17.612Z,903.00
2024-02-02T06:44:17.284Z,909.00
2024-02-02T06:45:17.510Z,920.00
2024-02-02T06:46:17.324Z,926.00
2024-02-02T06:47:17.324Z,933.00
2024-02-02T06:48:17.500Z,939.00
2024-02-02T06:49:18.560Z,960.00
2024-02-02T06:50:18.214Z,1267.00
2024-02-02T06:51:17.517Z,4500.00
2024-02-02T06:52:17.538Z,1724.00
2024-02-02T06:53:18.968Z,1191.00
2024-02-02T06:54:17.464Z,1158.00
2024-02-02T06:55:17.583Z,1139.00
2024-02-02T06:56:17.548Z,1118.00
2024-02-02T06:57:17.591Z,1105.00
2024-02-02T06:58:17.686Z,1104.00
2024-02-02T06:59:17.718Z,1109.00
2024-02-02T07:00:17.877Z,1109.00
2024-02-02T07:01:19.267Z,1191.00
2024-02-02T07:02:18.353Z,1220.00
2024-02-02T07:03:18.145Z,1228.00
2024-02-02T07:04:18.179Z,1233.00
2024-02-02T07:05:18.028Z,1252.00
2024-02-02T07:06:18.243Z,1313.00
2024-02-02T07:07:18.216Z,1378.00
2024-02-02T07:08:18.362Z,1406.00
2024-02-02T07:09:18.306Z,1419.00
2024-02-02T07:10:18.285Z,1461.00
2024-02-02T07:11:18.337Z,1482.00
2024-02-02T07:12:18.323Z,1528.00
2024-02-02T07:13:18.392Z,1564.00
2024-02-02T07:14:18.428Z,1587.00
2024-02-02T07:15:18.476Z,1620.00
2024-02-02T07:16:18.371Z,1643.00
2024-02-02T07:17:18.430Z,1682.00
2024-02-02T07:18:18.528Z,1707.00
2024-02-02T07:19:18.566Z,1748.00
2024-02-02T07:20:18.457Z,1757.00
2024-02-02T07:21:18.569Z,1780.00
2024-02-02T07:22:18.493Z,1799.00
2024-02-02T07:23:18.582Z,1811.00
2024-02-02T07:24:18.663Z,1837.00
2024-02-02T07:25:18.668Z,1870.00
2024-02-02T07:26:18.701Z,1896.00
2024-02-02T07:27:41.245Z,1912.00
2024-02-02T07:28:18.793Z,1937.00
2024-02-02T07:29:21.492Z,1988.00
2024-02-02T07:30:18.779Z,2006.00
2024-02-02T07:31:18.781Z,2063.00
2024-02-02T07:32:18.786Z,2089.00
2024-02-02T07:33:18.946Z,2098.00
2024-02-02T07:34:18.856Z,2108.00
2024-02-02T07:35:18.767Z,2134.00
2024-02-02T07:36:18.820Z,2167.00
2024-02-02T07:37:18.845Z,2171.00
2024-02-02T07:38:18.786Z,2185.00
2024-02-02T07:39:18.796Z,2189.00
2024-02-02T07:40:18.774Z,2179.00
2024-02-02T07:41:18.786Z,2139.00
2024-02-02T07:42:18.782Z,2032.00
2024-02-02T07:43:18.866Z,1901.00
2024-02-02T07:44:18.771Z,1655.00
2024-02-02T07:45:18.812Z,1534.00
2024-02-02T07:46:18.837Z,1517.00
2024-02-02T07:47:18.795Z,1423.00
2024-02-02T07:48:19.001Z,1400.00
2024-02-02T07:49:18.883Z,1394.00
2024-02-02T07:50:18.818Z,1395.00
2024-02-02T07:51:18.997Z,1394.00
2024-02-02T07:52:18.904Z,1391.00
2024-02-02T07:53:18.890Z,1386.00
2024-02-02T07:54:18.941Z,1389.00
2024-02-02T07:55:18.816Z,1263.00
2024-02-02T07:56:18.841Z,1345.00
2024-02-02T07:57:18.917Z,1331.00
2024-02-02T07:58:18.822Z,1264.00
2024-02-02T07:59:18.806Z,1253.00
2024-02-02T08:00:19.004Z,1305.00
2024-02-02T08:01:19.589Z,1324.00
2024-02-02T08:02:18.831Z,1398.00
2024-02-02T08:03:18.881Z,1431.00
2024-02-02T08:04:18.947Z,1457.00
2024-02-02T08:05:18.893Z,1474.00
2024-02-02T08:06:18.835Z,1507.00
2024-02-02T08:07:18.984Z,1528.00
2024-02-02T08:08:18.853Z,1597.00
2024-02-02T08:09:19.610Z,1613.00
2024-02-02T08:10:18.842Z,1628.00
2024-02-02T08:11:18.846Z,1651.00
2024-02-02T08:12:18.901Z,1710.00
2024-02-02T08:13:18.933Z,1717.00
2024-02-02T08:14:18.838Z,1733.00
2024-02-02T08:15:18.855Z,1752.00
2024-02-02T08:16:18.881Z,1775.00
2024-02-02T08:17:18.832Z,1808.00
2024-02-02T08:18:18.943Z,1831.00
2024-02-02T08:19:18.993Z,1858.00
2024-02-02T08:20:18.959Z,1880.00
2024-02-02T08:21:19.017Z,1890.00
2024-02-02T08:22:19.111Z,1906.00
2024-02-02T08:23:19.479Z,1978.00
2024-02-02T08:24:19.271Z,1992.00
2024-02-02T08:25:19.285Z,1997.00
2024-02-02T08:26:19.312Z,2002.00
2024-02-02T08:27:19.432Z,2007.00
2024-02-02T08:28:19.512Z,2014.00
2024-02-02T08:29:19.515Z,2034.00
2024-02-02T08:30:19.635Z,2051.00
2024-02-02T08:31:19.630Z,2059.00
2024-02-02T08:32:19.799Z,2073.00
2024-02-02T08:33:19.903Z,2091.00
2024-02-02T08:34:19.993Z,2146.00
2024-02-02T08:35:19.909Z,2153.00
2024-02-02T08:36:20.118Z,2168.00
2024-02-02T08:37:20.068Z,2185.00
2024-02-02T08:38:20.078Z,2195.00
2024-02-02T08:39:20.193Z,2212.00
2024-02-02T08:40:20.186Z,2230.00
2024-02-02T08:41:20.275Z,2244.00
2024-02-02T08:42:20.367Z,2268.00
2024-02-02T08:43:20.443Z,2294.00
2024-02-02T08:44:20.425Z,2310.00
2024-02-02T08:45:20.544Z,2338.00
2024-02-02T08:46:20.690Z,2354.00
2024-02-02T08:47:20.655Z,2380.00
2024-02-02T08:48:20.764Z,2396.00
2024-02-02T08:49:20.800Z,2405.00
2024-02-02T08:50:20.720Z,2402.00
2024-02-02T08:51:20.776Z,2386.00
2024-02-02T08:52:20.800Z,2346.00
2024-02-02T08:53:20.900Z,2215.00
2024-02-02T08:54:20.956Z,2207.00
2024-02-02T08:55:20.955Z,2194.00
2024-02-02T08:56:21.084Z,2176.00
2024-02-02T08:57:21.664Z,2170.00
2024-02-02T08:58:21.165Z,2167.00
2024-02-02T08:59:21.244Z,2160.00
2024-02-02T09:00:21.362Z,2155.00
2024-02-02T09:01:21.431Z,2155.00
2024-02-02T09:02:21.398Z,2153.00
2024-02-02T09:03:21.607Z,2153.00
2024-02-02T09:04:21.684Z,2154.00
2024-02-02T09:05:21.640Z,2148.00
2024-02-02T09:06:21.722Z,2139.00
2024-02-02T09:07:21.801Z,2125.00
2024-02-02T09:08:21.817Z,2109.00
2024-02-02T09:09:21.960Z,2089.00
2024-02-02T09:10:21.997Z,2075.00
2024-02-02T09:11:21.916Z,2065.00
2024-02-02T09:12:21.976Z,2055.00
2024-02-02T09:13:21.988Z,2050.00
2024-02-02T09:14:23.192Z,2040.00
2024-02-02T09:15:22.027Z,2037.00
2024-02-02T09:16:21.985Z,2026.00
2024-02-02T09:17:22.082Z,2021.00
2024-02-02T09:18:22.053Z,2008.00
2024-02-02T09:19:22.038Z,1998.00
2024-02-02T09:20:22.040Z,1996.00
2024-02-02T09:21:22.076Z,1994.00
2024-02-02T09:22:22.055Z,1986.00
2024-02-02T09:23:22.055Z,1974.00
2024-02-02T09:24:22.075Z,1967.00
2024-02-02T09:25:22.037Z,1963.00
2024-02-02T09:26:22.088Z,1952.00
2024-02-02T09:27:22.208Z,1942.00
2024-02-02T09:28:22.117Z,1938.00
2024-02-02T09:29:22.114Z,1911.00
2024-02-02T09:30:22.320Z,1898.00
2024-02-02T09:31:22.168Z,1895.00
2024-02-02T09:32:22.322Z,1894.00
2024-02-02T09:33:22.292Z,1893.00
2024-02-02T09:34:22.309Z,1895.00
2024-02-02T09:35:22.280Z,1890.00
2024-02-02T09:36:22.393Z,1875.00
2024-02-02T09:37:22.343Z,1863.00
2024-02-02T09:38:22.390Z,1855.00
2024-02-02T09:39:22.473Z,1852.00
2024-02-02T09:40:22.402Z,1846.00
2024-02-02T09:41:22.514Z,1831.00
2024-02-02T09:42:22.595Z,1818.00
2024-02-02T09:43:22.578Z,1823.00
2024-02-02T09:44:22.596Z,1916.00
2024-02-02T09:45:22.695Z,1935.00
2024-02-02T09:46:22.641Z,2059.00
2024-02-02T09:47:22.689Z,2064.00
2024-02-02T09:48:22.867Z,2049.00
2024-02-02T09:49:22.850Z,2017.00
2024-02-02T09:50:22.849Z,1866.00
2024-02-02T09:51:22.790Z,1754.00
2024-02-02T09:52:22.733Z,1732.00
2024-02-02T09:53:22.775Z,1700.00
2024-02-02T09:54:22.871Z,1678.00
2024-02-02T09:55:22.993Z,1651.00
2024-02-02T09:56:24.774Z,1613.00
2024-02-02T09:57:22.953Z,1615.00
2024-02-02T09:58:23.045Z,1611.00
2024-02-02T09:59:22.895Z,1600.00
2024-02-02T10:00:23.484Z,1591.00
2024-02-02T10:01:22.895Z,1607.00
2024-02-02T10:02:22.896Z,1700.00
2024-02-02T10:03:22.864Z,1744.00
2024-02-02T10:04:22.898Z,1757.00
2024-02-02T10:05:22.902Z,1746.00
2024-02-02T10:06:22.932Z,1730.00
2024-02-02T10:07:23.012Z,1714.00
2024-02-02T10:08:22.909Z,1667.00
2024-02-02T10:09:22.911Z,1656.00
2024-02-02T10:10:22.870Z,1643.00
2024-02-02T10:11:23.479Z,1631.00
2024-02-02T10:12:22.883Z,1622.00
2024-02-02T10:13:22.881Z,1587.00
2024-02-02T10:14:22.898Z,1576.00
2024-02-02T10:15:22.944Z,1570.00
2024-02-02T10:16:22.888Z,1569.00
2024-02-02T10:17:22.914Z,1560.00
2024-02-02T10:18:22.941Z,1549.00
2024-02-02T10:19:23.028Z,1532.00
2024-02-02T10:20:22.896Z,1491.00
2024-02-02T10:21:22.916Z,1483.00
2024-02-02T10:22:22.886Z,1473.00
2024-02-02T10:23:22.870Z,1483.00
2024-02-02T10:24:22.952Z,1491.00
2024-02-02T10:25:22.895Z,1507.00
2024-02-02T10:26:22.887Z,1522.00
2024-02-02T10:27:22.919Z,1534.00
2024-02-02T10:28:22.897Z,1555.00
2024-02-02T10:29:22.900Z,1567.00
2024-02-02T10:30:22.950Z,1589.00
2024-02-02T10:31:22.930Z,1603.00
2024-02-02T10:32:22.885Z,1618.00
2024-02-02T10:33:23.085Z,1639.00
2024-02-02T10:34:23.121Z,1677.00
2024-02-02T10:35:22.913Z,1693.00
2024-02-02T10:36:22.909Z,1710.00
2024-02-02T10:37:22.894Z,1758.00
2024-02-02T10:38:22.926Z,1766.00
2024-02-02T10:39:22.929Z,1763.00
2024-02-02T10:40:22.923Z,1780.00
2024-02-02T10:41:22.917Z,1808.00
2024-02-02T10:42:22.939Z,1827.00
2024-02-02T10:43:22.933Z,1839.00
2024-02-02T10:44:22.897Z,1854.00
2024-02-02T10:45:22.923Z,1867.00
2024-02-02T10:46:22.908Z,1887.00
2024-02-02T10:47:23.783Z,1897.00
2024-02-02T10:48:23.012Z,1934.00
2024-02-02T10:49:23.067Z,1973.00
2024-02-02T10:50:22.913Z,1968.00
2024-02-02T10:51:22.948Z,1959.00
2024-02-02T10:52:22.938Z,1931.00
2024-02-02T10:53:22.942Z,1875.00
2024-02-02T10:54:22.944Z,1847.00
2024-02-02T10:55:22.930Z,1831.00
2024-02-02T10:56:22.889Z,1769.00
2024-02-02T10:57:22.966Z,1751.00
2024-02-02T10:58:22.941Z,1743.00
2024-02-02T10:59:22.902Z,1730.00
2024-02-02T11:00:25.019Z,1725.00
2024-02-02T11:01:23.254Z,1722.00
2024-02-02T11:02:23.191Z,1721.00
2024-02-02T11:03:23.351Z,1720.00
2024-02-02T11:04:23.291Z,1720.00
2024-02-02T11:05:23.191Z,1714.00
2024-02-02T11:06:23.294Z,1714.00
2024-02-02T11:07:23.261Z,1715.00
2024-02-02T11:08:23.204Z,1714.00
2024-02-02T11:09:23.264Z,1709.00
2024-02-02T11:10:23.239Z,1709.00
2024-02-02T11:11:23.301Z,1706.00
2024-02-02T11:12:23.308Z,1703.00
2024-02-02T11:13:23.304Z,1704.00
2024-02-02T11:14:23.420Z,1703.00
2024-02-02T11:15:23.353Z,1704.00
2024-02-02T11:16:23.369Z,1694.00
2024-02-02T11:17:23.998Z,1693.00
2024-02-02T11:18:23.482Z,1686.00
2024-02-02T11:19:23.442Z,1689.00
2024-02-02T11:20:23.404Z,1688.00
2024-02-02T11:21:23.408Z,1685.00
2024-02-02T11:22:23.400Z,1685.00
2024-02-02T11:23:23.472Z,1684.00
2024-02-02T11:24:23.506Z,1682.00
2024-02-02T11:25:23.560Z,1683.00
2024-02-02T11:26:24.535Z,1681.00
2024-02-02T11:27:23.519Z,1680.00
2024-02-02T11:28:23.513Z,1673.00
2024-02-02T11:29:23.523Z,1671.00
2024-02-02T11:30:23.521Z,1671.00
2024-02-02T11:31:23.536Z,1671.00
2024-02-02T11:32:23.501Z,1670.00
2024-02-02T11:33:23.753Z,1668.00
2024-02-02T11:34:23.570Z,1668.00
2024-02-02T11:35:23.552Z,1667.00
2024-02-02T11:36:23.533Z,1665.00
2024-02-02T11:37:23.519Z,1664.00
2024-02-02T11:38:23.514Z,1663.00
2024-02-02T11:39:23.604Z,1660.00
2024-02-02T11:40:23.546Z,1663.00
2024-02-02T11:41:23.553Z,1660.00
2024-02-02T11:42:23.576Z,1660.00
2024-02-02T11:43:24.073Z,1658.00
2024-02-02T11:44:23.582Z,1652.00
2024-02-02T11:45:23.625Z,1645.00
2024-02-02T11:46:23.650Z,1640.00
2024-02-02T11:47:23.690Z,1641.00
2024-02-02T11:48:23.820Z,1636.00
2024-02-02T11:49:23.910Z,1633.00
2024-02-02T11:50:23.806Z,1632.00
2024-02-02T11:51:23.971Z,1629.00
2024-02-02T11:52:23.940Z,1628.00
2024-02-02T11:53:24.023Z,1623.00
2024-02-02T11:54:24.122Z,1625.00
2024-02-02T11:55:24.077Z,1626.00
2024-02-02T11:56:24.137Z,1624.00
2024-02-02T11:57:24.163Z,1625.00
2024-02-02T11:58:24.200Z,1624.00
2024-02-02T11:59:24.250Z,1624.00
2024-02-02T12:00:24.329Z,1626.00
2024-02-02T12:01:25.158Z,1624.00
2024-02-02T12:02:24.419Z,1621.00
2024-02-02T12:03:24.539Z,1619.00
2024-02-02T12:04:24.533Z,1618.00
2024-02-02T12:05:24.602Z,1620.00
2024-02-02T12:06:24.613Z,1618.00
2024-02-02T12:07:24.776Z,1614.00
2024-02-02T12:08:24.651Z,1614.00
2024-02-02T12:09:24.833Z,1612.00
2024-02-02T12:10:24.765Z,1608.00
2024-02-02T12:11:29.644Z,1606.00
2024-02-02T12:12:25.929Z,1602.00
2024-02-02T12:13:24.867Z,1599.00
2024-02-02T12:14:24.828Z,1594.00
2024-02-02T12:15:24.923Z,1592.00
2024-02-02T12:16:24.827Z,1592.00
2024-02-02T12:17:24.828Z,1593.00
2024-02-02T12:18:25.040Z,1590.00